You are not logged in, Click here to log in
深圳寶安國際機場 / ZGSZ 中國廣東省深圳市寶安區
ICAO: ZGSZ Country: 中國廣東省深圳市寶安區
Latitude: 22.6368 Longitude: 113.815
Total Arrivals: 30 Total Departures: 25
Latest Arrival: CI7189 (RCKH-ZGSZ)Lun. Wang Latest Departure: CI7190 (ZGSZ-RCKH)Lun. Wang
Scenery:
METAR : ZGSZ 090700Z 04004MPS 360V070 CAVOK 21/02 Q1019 NOSIG

深圳寶安國際機場

You are accessing this site from IP address 100.26.176.182. Virtual Airline. CMS by phpVMS.Website designed by Zumeweb and edited by Theo Bearman.
There is 0 User(s) Online: | and 12 Guest(s) Online.
All information on this site is for fight simulation purposes only. This site is for flight logging for pilots of Virtual Airline&模擬飛行論壇 FlySim only.